Terminal Aerodrome Forecast
Issued by NWS

Home | Current Version | Previous Version | Text Only | Print | Product List | Glossary On
Versions: 1 2 3 4 5 6 7 8 9 10 11 12 13 14 15 16 17 18 19 20 21 22 23 24 25 26 27 28 29 30 31 32 33 34 35 36 37 38
000
FTUS45 KBOU 131140
TAFBJC
TAF
KBJC 131140Z 1312/1412 29011KT 1/4SM FZFG OVC003
     FM131400 24007KT 1/2SM FZFG OVC004
      TEMPO 1315/1317 2SM BR SCT005 BKN140
     FM131700 22007KT P6SM FEW140 BKN220
     FM131900 26008KT P6SM SCT220
     FM132200 30011KT P6SM FEW220
     FM140300 36010KT P6SM FEW220
     FM140800 04008KT P6SM SCT140 BKN200=

USA.gov is the U.S. government's official web portal to all federal, state and local government web resources and services.